createdAt,value
2022-12-31T00:05:03.020Z,11.20
2022-12-31T00:10:07.484Z,13.07
2022-12-31T00:15:11.336Z,12.53
2022-12-31T00:20:15.156Z,11.97
2022-12-31T00:25:19.137Z,11.10
2022-12-31T00:30:24.603Z,15.57
2022-12-31T00:35:28.766Z,13.87
2022-12-31T00:40:32.751Z,15.53
2022-12-31T00:45:36.468Z,13.43
2022-12-31T00:50:41.727Z,14.43
2022-12-31T00:55:45.537Z,14.47
2022-12-31T01:00:49.519Z,14.53
2022-12-31T01:05:53.551Z,15.13
2022-12-31T01:11:15.747Z,14.57
2022-12-31T01:16:22.954Z,12.70
2022-12-31T01:21:26.767Z,13.50
2022-12-31T01:26:30.466Z,10.60
2022-12-31T01:31:35.280Z,12.13
2022-12-31T01:36:39.448Z,10.77
2022-12-31T01:41:45.558Z,11.33
2022-12-31T01:46:54.689Z,10.23
2022-12-31T01:52:19.077Z,9.50
2022-12-31T01:57:25.015Z,8.70
2022-12-31T02:02:29.079Z,9.90
2022-12-31T02:07:33.575Z,10.57
2022-12-31T02:12:37.507Z,11.23
2022-12-31T02:18:16.803Z,9.03
2022-12-31T02:23:47.349Z,8.83
2022-12-31T02:29:04.585Z,9.50
2022-12-31T02:34:19.115Z,9.37
2022-12-31T02:39:22.826Z,10.17
2022-12-31T02:44:31.704Z,8.57
2022-12-31T02:50:11.903Z,8.70
2022-12-31T02:55:35.876Z,9.27
2022-12-31T03:01:12.981Z,8.37
2022-12-31T03:06:17.009Z,8.23
2022-12-31T03:11:40.806Z,7.60
2022-12-31T03:16:44.523Z,8.10
2022-12-31T03:22:06.533Z,7.70
2022-12-31T03:27:10.276Z,9.10
2022-12-31T03:32:13.864Z,7.63
2022-12-31T03:37:17.517Z,7.87
2022-12-31T03:42:21.251Z,7.80
2022-12-31T03:47:25.045Z,8.23
2022-12-31T03:52:28.718Z,8.77
2022-12-31T03:57:33.770Z,7.47
2022-12-31T04:02:38.005Z,7.60
2022-12-31T04:07:43.077Z,7.33
2022-12-31T04:12:47.357Z,7.67
2022-12-31T04:17:51.256Z,6.93
2022-12-31T04:22:55.139Z,7.27
2022-12-31T04:27:58.763Z,7.53
2022-12-31T04:33:02.438Z,7.57
2022-12-31T04:38:06.288Z,7.70
2022-12-31T04:43:10.057Z,6.53
2022-12-31T04:48:13.797Z,5.60
2022-12-31T04:53:17.537Z,6.27
2022-12-31T04:58:21.467Z,6.83
2022-12-31T05:03:26.851Z,6.23
2022-12-31T05:08:30.735Z,5.83
2022-12-31T05:13:34.835Z,5.50
2022-12-31T05:18:38.736Z,4.87
2022-12-31T05:23:42.518Z,5.30
2022-12-31T05:28:46.395Z,5.30
2022-12-31T05:33:50.254Z,5.23
2022-12-31T05:38:53.825Z,5.10
2022-12-31T05:43:57.556Z,4.80
2022-12-31T05:49:01.522Z,5.90
2022-12-31T05:54:05.303Z,5.17
2022-12-31T05:59:08.857Z,5.80
2022-12-31T06:04:12.637Z,5.00
2022-12-31T06:09:17.789Z,4.27
2022-12-31T06:14:21.775Z,5.37
2022-12-31T06:19:25.426Z,5.33
2022-12-31T06:24:29.295Z,4.83
2022-12-31T06:29:33.015Z,4.90
2022-12-31T06:34:36.808Z,4.67
2022-12-31T06:39:40.456Z,5.03
2022-12-31T06:44:44.597Z,4.87
2022-12-31T06:49:48.299Z,5.30
2022-12-31T06:54:52.385Z,4.90
2022-12-31T06:59:56.516Z,4.80
2022-12-31T07:05:03.379Z,5.50
2022-12-31T07:10:40.264Z,5.70
2022-12-31T07:16:19.023Z,6.73
2022-12-31T07:21:34.404Z,5.00
2022-12-31T07:26:57.115Z,4.40
2022-12-31T07:32:37.989Z,5.17
2022-12-31T07:38:05.365Z,6.60
2022-12-31T07:43:17.681Z,5.37
2022-12-31T07:48:27.041Z,5.33
2022-12-31T07:53:31.226Z,5.53
2022-12-31T07:58:41.257Z,5.00
2022-12-31T08:03:57.376Z,4.67
2022-12-31T08:09:23.637Z,5.43
2022-12-31T08:14:27.917Z,6.00
2022-12-31T08:19:33.668Z,4.30
2022-12-31T08:25:08.905Z,4.80
2022-12-31T08:30:19.776Z,4.67
2022-12-31T08:35:31.446Z,4.90
2022-12-31T08:41:00.014Z,4.23
2022-12-31T08:46:07.493Z,4.80
2022-12-31T08:51:26.642Z,5.40
2022-12-31T08:56:46.012Z,4.80
2022-12-31T09:02:09.564Z,4.67
2022-12-31T09:07:14.651Z,4.43
2022-12-31T09:12:38.756Z,4.17
2022-12-31T09:17:47.454Z,4.43
2022-12-31T09:22:52.135Z,4.80
2022-12-31T09:28:18.256Z,4.27
2022-12-31T09:33:41.311Z,4.10
2022-12-31T09:39:09.215Z,4.70
2022-12-31T09:44:29.749Z,4.83
2022-12-31T09:49:35.008Z,4.07
2022-12-31T09:54:55.605Z,4.37
2022-12-31T10:00:13.066Z,3.97
2022-12-31T10:05:29.157Z,4.63
2022-12-31T10:10:46.646Z,5.80
2022-12-31T10:16:05.427Z,5.23
2022-12-31T10:21:48.985Z,4.60
2022-12-31T10:26:58.711Z,4.63
2022-12-31T10:32:17.921Z,5.33
2022-12-31T10:37:40.678Z,4.83
2022-12-31T10:43:02.372Z,4.90
2022-12-31T10:48:22.733Z,4.73
2022-12-31T10:53:32.642Z,4.33
2022-12-31T10:59:02.830Z,4.80
2022-12-31T11:04:33.675Z,5.33
2022-12-31T11:09:43.388Z,4.40
2022-12-31T11:15:16.815Z,5.23
2022-12-31T11:20:34.307Z,4.27
2022-12-31T11:25:55.285Z,3.57
2022-12-31T11:31:17.367Z,3.63
2022-12-31T11:36:37.988Z,4.57
2022-12-31T11:41:54.105Z,4.33
2022-12-31T11:47:00.901Z,3.57
2022-12-31T11:52:19.548Z,4.00
2022-12-31T11:57:52.057Z,3.60
2022-12-31T12:03:02.848Z,3.40
2022-12-31T12:08:08.854Z,4.10
2022-12-31T12:13:23.176Z,3.80
2022-12-31T12:18:37.764Z,4.37
2022-12-31T12:23:43.345Z,3.77
2022-12-31T12:28:47.246Z,3.53
2022-12-31T12:33:52.539Z,3.50
2022-12-31T12:39:04.887Z,2.50
2022-12-31T12:44:16.107Z,2.83
2022-12-31T12:49:33.274Z,2.20
2022-12-31T12:54:55.854Z,2.20
2022-12-31T13:00:24.152Z,1.83
2022-12-31T13:05:56.489Z,2.10
2022-12-31T13:11:22.444Z,2.00
2022-12-31T13:16:43.495Z,2.03
2022-12-31T13:22:18.341Z,1.50
2022-12-31T13:27:39.645Z,1.97
2022-12-31T13:32:53.176Z,1.90
2022-12-31T13:38:14.512Z,2.00
2022-12-31T13:43:45.771Z,1.50
2022-12-31T13:49:04.751Z,1.53
2022-12-31T13:54:33.040Z,1.80
2022-12-31T13:59:42.705Z,2.10
2022-12-31T14:05:00.686Z,1.70
2022-12-31T14:10:12.190Z,1.77
2022-12-31T14:15:33.562Z,2.53
2022-12-31T14:20:52.532Z,1.80
2022-12-31T14:26:15.113Z,1.77
2022-12-31T14:31:56.013Z,1.73
2022-12-31T14:37:08.694Z,2.30
2022-12-31T14:42:34.747Z,2.10
2022-12-31T14:47:58.709Z,1.80
2022-12-31T14:53:06.758Z,1.77
2022-12-31T14:58:38.489Z,2.00
2022-12-31T15:03:48.965Z,2.10
2022-12-31T15:09:17.205Z,2.17
2022-12-31T15:14:23.542Z,1.57
2022-12-31T15:19:45.736Z,1.80
2022-12-31T15:24:49.848Z,2.00
2022-12-31T15:29:53.581Z,2.40
2022-12-31T15:35:22.916Z,2.00
2022-12-31T15:40:26.625Z,2.63
2022-12-31T15:45:40.017Z,2.40
2022-12-31T15:50:46.186Z,2.17
2022-12-31T15:55:54.175Z,2.43
2022-12-31T16:01:10.697Z,2.80
2022-12-31T16:06:16.873Z,2.33
2022-12-31T16:11:20.296Z,2.63
2022-12-31T16:16:30.042Z,2.30
2022-12-31T16:21:40.145Z,3.00
2022-12-31T16:26:50.066Z,2.50
2022-12-31T16:31:55.453Z,3.53
2022-12-31T16:37:05.202Z,3.90
2022-12-31T16:42:15.239Z,5.40
2022-12-31T16:47:22.044Z,4.77
2022-12-31T16:52:33.446Z,5.90
2022-12-31T16:57:37.894Z,8.17
2022-12-31T17:02:44.572Z,6.57
2022-12-31T17:07:49.258Z,5.37
2022-12-31T17:18:39.536Z,7.97
2022-12-31T17:23:50.559Z,16.97
2022-12-31T17:28:57.167Z,11.63
2022-12-31T17:34:23.517Z,11.63
2022-12-31T17:39:33.703Z,7.93
2022-12-31T17:44:40.443Z,7.67
2022-12-31T17:49:47.578Z,6.40
2022-12-31T17:54:51.406Z,6.17
2022-12-31T17:59:55.446Z,6.43
2022-12-31T18:04:59.256Z,3.23
2022-12-31T18:10:03.325Z,3.70
2022-12-31T18:15:08.330Z,3.10
2022-12-31T18:20:13.518Z,3.10
2022-12-31T18:25:23.400Z,2.93
2022-12-31T18:30:27.833Z,2.70
2022-12-31T18:40:58.852Z,4.63
2022-12-31T18:46:02.484Z,8.03
2022-12-31T18:51:06.206Z,19.20
2022-12-31T18:56:15.636Z,13.77
2022-12-31T19:01:30.021Z,13.53
2022-12-31T19:06:33.794Z,8.00
2022-12-31T19:11:39.450Z,7.87
2022-12-31T19:16:43.493Z,5.37
2022-12-31T19:21:51.204Z,4.30
2022-12-31T19:27:03.711Z,3.80
2022-12-31T19:32:12.654Z,3.40
2022-12-31T19:37:20.013Z,3.30
2022-12-31T19:42:24.182Z,7.30
2022-12-31T19:47:27.993Z,5.17
2022-12-31T19:52:31.896Z,4.70
2022-12-31T19:57:38.406Z,3.70
2022-12-31T20:02:44.104Z,3.27
2022-12-31T20:07:48.182Z,3.23
2022-12-31T20:12:51.758Z,2.50
2022-12-31T20:18:00.478Z,3.00
2022-12-31T20:23:04.582Z,3.00
2022-12-31T20:28:08.412Z,2.70
2022-12-31T20:33:15.838Z,2.70
2022-12-31T20:38:22.833Z,3.23
2022-12-31T20:43:30.545Z,3.07
2022-12-31T20:48:34.311Z,3.53
2022-12-31T20:53:38.230Z,2.87
2022-12-31T20:58:42.205Z,3.17
2022-12-31T21:04:05.543Z,3.40
2022-12-31T21:09:14.944Z,3.23
2022-12-31T21:14:19.901Z,3.43
2022-12-31T21:19:24.427Z,2.80
2022-12-31T21:24:28.555Z,1.97
2022-12-31T21:29:34.956Z,2.40
2022-12-31T21:34:41.704Z,2.70
2022-12-31T21:39:45.904Z,2.50
2022-12-31T21:44:49.693Z,2.17
2022-12-31T21:49:55.455Z,1.97
2022-12-31T21:55:20.555Z,2.00
2022-12-31T22:00:46.136Z,2.20
2022-12-31T22:06:03.635Z,2.77
2022-12-31T22:11:14.121Z,2.13
2022-12-31T22:16:21.159Z,2.37
2022-12-31T22:21:26.373Z,1.93
2022-12-31T22:26:35.547Z,2.40
2022-12-31T22:32:05.280Z,2.30
2022-12-31T22:37:35.668Z,2.53
2022-12-31T22:43:00.355Z,2.80
2022-12-31T22:48:09.448Z,2.80
2022-12-31T22:53:17.331Z,2.40
2022-12-31T22:58:25.450Z,2.40
2022-12-31T23:03:30.179Z,6.10
2022-12-31T23:08:34.476Z,3.33
2022-12-31T23:14:05.219Z,3.13
2022-12-31T23:19:28.334Z,4.30
2022-12-31T23:24:32.417Z,3.10
2022-12-31T23:29:49.901Z,2.63
2022-12-31T23:34:56.438Z,2.27
2022-12-31T23:40:00.305Z,2.30
2022-12-31T23:45:09.043Z,2.83
2022-12-31T23:50:12.815Z,3.90
2022-12-31T23:55:16.806Z,3.30
